createdAt,value
2019-04-01T00:01:11.381Z,47.27
2019-04-01T00:03:41.018Z,47.23
2019-04-01T00:06:10.558Z,47.10
2019-04-01T00:08:40.171Z,47.17
2019-04-01T00:11:09.828Z,47.13
2019-04-01T00:13:39.463Z,47.09
2019-04-01T00:16:09.148Z,47.15
2019-04-01T00:18:38.705Z,47.25
2019-04-01T00:21:08.500Z,47.14
2019-04-01T00:23:38.003Z,47.23
2019-04-01T00:26:07.672Z,47.40
2019-04-01T00:28:37.365Z,47.45
2019-04-01T00:31:07.005Z,47.51
2019-04-01T00:33:36.733Z,47.52
2019-04-01T00:36:06.442Z,47.57
2019-04-01T00:38:36.107Z,47.54
2019-04-01T00:41:05.744Z,47.59
2019-04-01T00:44:00.355Z,47.57
2019-04-01T00:46:31.530Z,47.66
2019-04-01T00:49:01.139Z,47.77
2019-04-01T00:51:30.766Z,47.87
2019-04-01T00:54:00.450Z,48.00
2019-04-01T00:56:30.103Z,48.04
2019-04-01T00:58:59.671Z,48.18
2019-04-01T01:01:29.342Z,48.33
2019-04-01T01:03:59.016Z,48.50
2019-04-01T01:06:28.661Z,48.51
2019-04-01T01:08:58.305Z,48.61
2019-04-01T01:11:27.947Z,48.68
2019-04-01T01:13:57.620Z,48.73
2019-04-01T01:16:27.385Z,48.78
2019-04-01T01:18:57.070Z,48.86
2019-04-01T01:21:26.695Z,48.95
2019-04-01T01:23:56.380Z,49.16
2019-04-01T01:26:26.019Z,49.34
2019-04-01T01:28:55.700Z,49.45
2019-04-01T01:31:25.347Z,49.51
2019-04-01T01:33:55.001Z,49.40
2019-04-01T01:36:24.678Z,49.60
2019-04-01T01:38:54.290Z,49.76
2019-04-01T01:41:23.963Z,49.79
2019-04-01T01:43:53.420Z,50.06
2019-04-01T01:46:23.089Z,50.14
2019-04-01T01:48:52.855Z,50.15
2019-04-01T01:51:22.616Z,50.40
2019-04-01T01:53:52.281Z,50.54
2019-04-01T01:56:22.024Z,50.72
2019-04-01T01:58:51.692Z,50.79
2019-04-01T02:01:21.341Z,50.73
2019-04-01T02:03:51.024Z,50.77
2019-04-01T02:06:20.760Z,50.79
2019-04-01T02:08:50.348Z,50.79
2019-04-01T02:11:20.000Z,50.72
2019-04-01T02:13:49.755Z,50.88
2019-04-01T02:16:19.477Z,50.83
2019-04-01T02:18:49.197Z,50.86
2019-04-01T02:21:18.856Z,50.94
2019-04-01T02:23:48.469Z,50.95
2019-04-01T02:26:18.211Z,51.06
2019-04-01T02:28:47.856Z,51.14
2019-04-01T02:31:17.626Z,51.26
2019-04-01T02:33:47.280Z,51.31
2019-04-01T02:36:16.973Z,51.38
2019-04-01T02:38:46.616Z,51.42
2019-04-01T02:41:16.393Z,51.49
2019-04-01T02:43:46.009Z,51.51
2019-04-01T02:46:15.703Z,51.60
2019-04-01T02:48:45.434Z,51.77
2019-04-01T02:51:15.094Z,51.87
2019-04-01T02:53:44.766Z,51.92
2019-04-01T02:56:14.414Z,51.96
2019-04-01T02:58:44.103Z,52.05
2019-04-01T03:01:13.739Z,52.11
2019-04-01T03:03:43.381Z,52.12
2019-04-01T03:06:12.968Z,52.16
2019-04-01T03:08:42.605Z,52.21
2019-04-01T03:11:12.270Z,52.26
2019-04-01T03:13:41.918Z,52.30
2019-04-01T03:16:11.590Z,52.40
2019-04-01T03:18:41.258Z,52.48
2019-04-01T03:21:10.925Z,52.57
2019-04-01T03:23:40.564Z,52.54
2019-04-01T03:26:10.246Z,52.69
2019-04-01T03:28:39.879Z,53.29
2019-04-01T03:31:09.543Z,53.55
2019-04-01T03:33:39.108Z,53.57
2019-04-01T03:36:08.846Z,53.55
2019-04-01T03:38:38.542Z,53.49
2019-04-01T03:41:08.198Z,53.41
2019-04-01T03:43:37.853Z,53.44
2019-04-01T03:46:07.503Z,53.35
2019-04-01T03:48:37.168Z,53.38
2019-04-01T03:51:06.820Z,53.40
2019-04-01T03:53:36.422Z,53.39
2019-04-01T03:56:06.895Z,53.42
2019-04-01T03:58:36.556Z,53.35
2019-04-01T04:01:06.292Z,53.76
2019-04-01T04:03:35.993Z,53.96
2019-04-01T04:06:05.649Z,54.11
2019-04-01T04:08:35.326Z,54.63
2019-04-01T04:11:05.260Z,54.73
2019-04-01T04:13:34.821Z,55.10
2019-04-01T04:16:04.510Z,55.12
2019-04-01T04:18:34.109Z,54.99
2019-04-01T04:21:03.851Z,55.27
2019-04-01T04:23:33.448Z,55.25
2019-04-01T04:26:03.112Z,55.38
2019-04-01T04:31:06.444Z,55.25
2019-04-01T04:33:36.089Z,55.21
2019-04-01T04:36:05.935Z,55.09
2019-04-01T04:38:35.623Z,54.96
2019-04-01T04:41:05.284Z,54.81
2019-04-01T04:43:34.924Z,54.81
2019-04-01T04:46:04.575Z,54.67
2019-04-01T04:48:34.257Z,54.63
2019-04-01T04:51:03.898Z,54.18
2019-04-01T04:53:33.610Z,54.53
2019-04-01T04:56:03.385Z,54.89
2019-04-01T04:58:33.097Z,55.24
2019-04-01T05:01:02.683Z,56.42
2019-04-01T05:03:32.382Z,55.84
2019-04-01T05:06:02.034Z,55.49
2019-04-01T05:08:31.772Z,55.26
2019-04-01T05:11:02.339Z,54.96
2019-04-01T05:13:32.039Z,54.74
2019-04-01T05:16:01.735Z,54.65
2019-04-01T05:18:31.533Z,54.49
2019-04-01T05:21:01.196Z,54.35
2019-04-01T05:23:30.953Z,54.25
2019-04-01T05:26:00.613Z,54.13
2019-04-01T05:28:30.480Z,53.97
2019-04-01T05:31:01.177Z,53.51
2019-04-01T05:33:30.816Z,53.31
2019-04-01T05:36:00.373Z,52.99
2019-04-01T05:38:30.040Z,52.49
2019-04-01T05:40:59.808Z,52.21
2019-04-01T05:43:29.849Z,51.74
2019-04-01T05:45:59.510Z,51.27
2019-04-01T05:48:31.660Z,50.38
2019-04-01T05:51:01.193Z,49.45
2019-04-01T05:53:30.894Z,48.94
2019-04-01T05:56:00.543Z,48.18
2019-04-01T05:58:30.397Z,47.78
2019-04-01T06:01:05.575Z,47.24
2019-04-01T06:03:35.450Z,46.75
2019-04-01T06:06:05.194Z,46.28
2019-04-01T06:08:34.970Z,45.77
2019-04-01T06:11:04.622Z,45.46
2019-04-01T06:13:34.264Z,44.97
2019-04-01T06:16:04.047Z,44.45
2019-04-01T06:18:33.785Z,44.08
2019-04-01T06:21:03.584Z,43.72
2019-04-01T06:23:33.423Z,43.59
2019-04-01T06:26:03.081Z,42.98
2019-04-01T06:28:32.782Z,42.51
2019-04-01T06:31:02.518Z,41.81
2019-04-01T06:33:32.163Z,40.91
2019-04-01T06:36:01.803Z,39.87
2019-04-01T06:38:31.453Z,39.09
2019-04-01T06:41:01.070Z,37.89
2019-04-01T06:43:30.725Z,37.74
2019-04-01T06:46:00.479Z,37.24
2019-04-01T06:48:30.113Z,36.98
2019-04-01T06:50:59.797Z,36.03
2019-04-01T06:53:29.450Z,35.85
2019-04-01T06:55:59.105Z,35.29
2019-04-01T06:58:28.722Z,34.63
2019-04-01T07:00:58.345Z,34.59
2019-04-01T07:03:28.114Z,35.02
2019-04-01T07:05:57.778Z,35.86
2019-04-01T07:08:27.353Z,38.53
2019-04-01T07:10:57.092Z,37.24
2019-04-01T07:13:26.652Z,35.86
2019-04-01T07:15:56.412Z,35.36
2019-04-01T07:18:26.095Z,35.46
2019-04-01T07:20:55.618Z,36.14
2019-04-01T07:23:25.306Z,36.69
2019-04-01T07:25:54.939Z,37.87
2019-04-01T07:28:24.592Z,36.15
2019-04-01T07:30:54.369Z,35.28
2019-04-01T07:33:24.035Z,35.69
2019-04-01T07:35:53.675Z,36.65
2019-04-01T07:38:23.372Z,35.93
2019-04-01T07:40:53.505Z,37.46
2019-04-01T07:43:23.080Z,36.02
2019-04-01T07:45:53.035Z,34.71
2019-04-01T07:48:22.802Z,36.62
2019-04-01T07:50:52.568Z,37.55
2019-04-01T07:53:22.208Z,36.17
2019-04-01T07:55:51.796Z,33.69
2019-04-01T07:58:21.553Z,33.65
2019-04-01T08:00:51.380Z,33.88
2019-04-01T08:03:21.231Z,32.37
2019-04-01T08:05:51.087Z,36.50
2019-04-01T08:08:21.658Z,35.97
2019-04-01T08:10:51.224Z,34.96
2019-04-01T08:13:20.785Z,35.77
2019-04-01T08:15:50.530Z,37.80
2019-04-01T08:18:20.169Z,36.86
2019-04-01T08:20:49.768Z,36.88
2019-04-01T08:23:19.313Z,36.65
2019-04-01T08:25:48.974Z,35.31
2019-04-01T08:28:18.616Z,34.43
2019-04-01T08:30:49.357Z,37.02
2019-04-01T08:33:19.229Z,37.05
2019-04-01T08:35:48.815Z,35.29
2019-04-01T08:38:18.613Z,35.02
2019-04-01T08:40:48.378Z,34.82
2019-04-01T08:43:18.016Z,36.07
2019-04-01T08:45:47.578Z,36.34
2019-04-01T08:48:17.143Z,34.72
2019-04-01T08:50:46.788Z,34.73
2019-04-01T08:53:16.549Z,36.26
2019-04-01T08:55:46.219Z,36.40
2019-04-01T08:58:16.796Z,33.76
2019-04-01T09:00:46.447Z,31.78
2019-04-01T09:03:16.088Z,31.19
2019-04-01T09:05:45.795Z,34.43
2019-04-01T09:08:16.319Z,35.45
2019-04-01T09:10:46.360Z,34.81
2019-04-01T09:13:16.387Z,35.87
2019-04-01T09:15:45.953Z,35.05
2019-04-01T09:18:15.512Z,35.21
2019-04-01T09:20:45.163Z,36.13
2019-04-01T09:23:14.836Z,35.93
2019-04-01T09:25:44.536Z,36.39
2019-04-01T09:28:14.496Z,35.53
2019-04-01T09:30:44.222Z,36.33
2019-04-01T09:33:13.895Z,35.41
2019-04-01T09:35:44.287Z,36.15
2019-04-01T09:38:14.066Z,37.24
2019-04-01T09:40:43.807Z,33.52
2019-04-01T09:43:14.301Z,35.64
2019-04-01T09:45:44.353Z,36.79
2019-04-01T09:48:14.136Z,35.01
2019-04-01T09:50:43.781Z,35.18
2019-04-01T09:53:13.580Z,36.14
2019-04-01T09:55:43.437Z,35.06
2019-04-01T09:58:13.063Z,35.17
2019-04-01T10:00:42.733Z,33.99
2019-04-01T10:03:12.374Z,32.23
2019-04-01T10:05:42.226Z,29.13
2019-04-01T10:08:11.870Z,30.10
2019-04-01T10:10:41.579Z,29.72
2019-04-01T10:13:11.216Z,27.54
2019-04-01T10:15:40.875Z,29.18
2019-04-01T10:18:10.508Z,32.12
2019-04-01T10:20:40.299Z,31.95
2019-04-01T10:23:09.953Z,31.54
2019-04-01T10:25:39.597Z,33.70
2019-04-01T10:28:09.649Z,35.17
2019-04-01T10:30:41.504Z,35.26
2019-04-01T10:33:10.886Z,33.38
2019-04-01T10:35:40.296Z,34.26
2019-04-01T10:38:09.707Z,35.33
2019-04-01T10:40:39.160Z,35.80
2019-04-01T10:43:08.534Z,33.38
2019-04-01T10:45:37.963Z,34.32
2019-04-01T10:48:07.399Z,33.32
2019-04-01T10:50:36.875Z,34.15
2019-04-01T10:53:06.379Z,34.79
2019-04-01T10:55:35.835Z,33.61
2019-04-01T10:58:05.391Z,34.43
2019-04-01T11:00:34.799Z,34.80
2019-04-01T11:03:06.210Z,35.38
2019-04-01T11:05:35.316Z,33.83
2019-04-01T11:08:04.841Z,33.95
2019-04-01T11:10:34.276Z,34.37
2019-04-01T11:13:03.699Z,32.84
2019-04-01T11:15:33.145Z,32.22
2019-04-01T11:18:02.565Z,33.40
2019-04-01T11:20:31.970Z,33.08
2019-04-01T11:23:02.803Z,32.68
2019-04-01T11:25:32.553Z,31.41
2019-04-01T11:28:02.071Z,32.26
2019-04-01T11:30:31.459Z,32.43
2019-04-01T11:33:00.980Z,31.92
2019-04-01T11:35:30.384Z,31.55
2019-04-01T11:37:59.802Z,30.87
2019-04-01T11:40:29.241Z,30.79
2019-04-01T11:42:58.829Z,32.58
2019-04-01T11:45:28.219Z,29.42
2019-04-01T11:47:57.770Z,28.63
2019-04-01T11:50:27.184Z,30.13
2019-04-01T11:52:56.617Z,30.98
2019-04-01T11:55:26.004Z,30.50
2019-04-01T11:57:55.427Z,30.52
2019-04-01T12:00:26.371Z,31.68
2019-04-01T12:02:55.962Z,31.46
2019-04-01T12:05:25.359Z,30.84
2019-04-01T12:07:54.804Z,30.58
2019-04-01T12:10:24.190Z,28.60
2019-04-01T12:12:53.624Z,29.82
2019-04-01T12:15:23.017Z,29.10
2019-04-01T12:17:52.426Z,29.90
2019-04-01T12:20:21.827Z,29.30
2019-04-01T12:22:53.184Z,29.81
2019-04-01T12:25:22.551Z,31.52
2019-04-01T12:27:51.975Z,28.56
2019-04-01T12:30:21.361Z,27.36
2019-04-01T12:32:50.830Z,30.09
2019-04-01T12:35:20.243Z,31.12
2019-04-01T12:37:49.649Z,31.79
2019-04-01T12:40:19.018Z,31.25
2019-04-01T12:42:50.803Z,30.86
2019-04-01T12:45:19.558Z,30.46
2019-04-01T12:47:49.033Z,31.37
2019-04-01T12:50:18.431Z,32.11
2019-04-01T12:52:47.853Z,30.85
2019-04-01T12:55:17.215Z,31.81
2019-04-01T12:57:48.471Z,31.01
2019-04-01T13:00:17.847Z,31.43
2019-04-01T13:02:47.288Z,29.87
2019-04-01T13:05:16.646Z,29.43
2019-04-01T13:07:46.027Z,28.62
2019-04-01T13:10:15.462Z,30.75
2019-04-01T13:12:46.335Z,29.12
2019-04-01T13:15:15.991Z,30.19
2019-04-01T13:17:45.382Z,29.15
2019-04-01T13:20:15.017Z,29.48
2019-04-01T13:22:44.562Z,30.56
2019-04-01T13:25:14.261Z,28.65
2019-04-01T13:27:43.818Z,30.15
2019-04-01T13:30:13.314Z,30.52
2019-04-01T13:32:42.726Z,31.44
2019-04-01T13:35:12.143Z,31.11
2019-04-01T13:37:41.528Z,30.84
2019-04-01T13:40:11.052Z,31.50
2019-04-01T13:42:40.435Z,29.57
2019-04-01T13:45:09.874Z,31.11
2019-04-01T13:47:41.265Z,31.32
2019-04-01T13:50:10.482Z,29.67
2019-04-01T13:52:39.837Z,30.29
2019-04-01T13:55:10.049Z,31.93
2019-04-01T13:57:41.903Z,31.53
2019-04-01T14:00:11.831Z,31.52
2019-04-01T14:02:42.742Z,32.17
2019-04-01T14:05:12.213Z,32.46
2019-04-01T14:07:41.599Z,31.90
2019-04-01T14:10:11.278Z,31.47
2019-04-01T14:12:40.908Z,30.56
2019-04-01T14:15:10.431Z,31.38
2019-04-01T14:17:40.202Z,31.09
2019-04-01T14:20:09.556Z,31.41
2019-04-01T14:22:39.011Z,32.77
2019-04-01T14:25:08.407Z,32.70
2019-04-01T14:27:39.284Z,32.92
2019-04-01T14:30:08.810Z,32.63
2019-04-01T14:32:38.694Z,32.40
2019-04-01T14:35:08.211Z,32.44
2019-04-01T14:37:37.726Z,32.16
2019-04-01T14:40:08.596Z,32.30
2019-04-01T14:42:39.651Z,32.82
2019-04-01T14:45:09.810Z,32.48
2019-04-01T14:47:55.877Z,32.60
2019-04-01T14:50:10.324Z,33.39
2019-04-01T14:52:41.310Z,32.15
2019-04-01T14:55:11.038Z,32.64
2019-04-01T14:57:40.503Z,32.65
2019-04-01T15:00:11.593Z,31.63
2019-04-01T15:02:41.104Z,32.20
2019-04-01T15:05:10.590Z,31.81
2019-04-01T15:07:40.032Z,32.69
2019-04-01T15:10:09.425Z,31.42
2019-04-01T15:12:39.645Z,30.97
2019-04-01T15:15:09.808Z,29.56
2019-04-01T15:17:39.272Z,32.27
2019-04-01T15:20:08.725Z,32.52
2019-04-01T15:22:38.091Z,32.92
2019-04-01T15:25:07.657Z,32.91
2019-04-01T15:27:37.053Z,32.38
2019-04-01T15:30:07.199Z,31.89
2019-04-01T15:32:36.612Z,31.77
2019-04-01T15:35:06.777Z,32.29
2019-04-01T15:37:36.229Z,32.45
2019-04-01T15:40:06.901Z,33.56
2019-04-01T15:42:36.356Z,33.12
2019-04-01T15:45:06.375Z,32.28
2019-04-01T15:47:36.212Z,32.03
2019-04-01T15:50:06.201Z,33.03
2019-04-01T15:52:36.299Z,33.50
2019-04-01T15:55:06.189Z,33.54
2019-04-01T15:57:35.697Z,32.48
2019-04-01T16:00:05.528Z,33.17
2019-04-01T16:02:34.888Z,32.22
2019-04-01T16:05:05.912Z,33.06
2019-04-01T16:07:35.479Z,33.14
2019-04-01T16:10:05.394Z,32.38
2019-04-01T16:12:34.993Z,32.58
2019-04-01T16:15:04.589Z,33.03
2019-04-01T16:17:34.225Z,33.08
2019-04-01T16:20:03.995Z,33.25
2019-04-01T16:22:34.853Z,34.09
2019-04-01T16:25:06.157Z,34.25
2019-04-01T16:27:36.390Z,34.38
2019-04-01T16:30:07.335Z,33.24
2019-04-01T16:32:40.567Z,32.87
2019-04-01T16:35:13.445Z,33.31
2019-04-01T16:37:42.814Z,33.08
2019-04-01T16:40:12.194Z,33.91
2019-04-01T16:42:41.672Z,33.29
2019-04-01T16:45:12.449Z,33.55
2019-04-01T16:47:42.590Z,34.06
2019-04-01T16:50:11.983Z,33.35
2019-04-01T16:52:41.410Z,33.50
2019-04-01T16:55:10.812Z,32.93
2019-04-01T16:57:40.549Z,32.37
2019-04-01T17:00:09.963Z,32.65
2019-04-01T17:02:39.442Z,32.15
2019-04-01T17:05:10.506Z,32.54
2019-04-01T17:07:43.689Z,32.42
2019-04-01T17:10:20.039Z,32.66
2019-04-01T17:12:50.915Z,32.97
2019-04-01T17:15:21.390Z,32.71
2019-04-01T17:17:51.223Z,33.28
2019-04-01T17:20:20.719Z,33.08
2019-04-01T17:22:50.199Z,33.29
2019-04-01T17:25:19.625Z,33.40
2019-04-01T17:27:49.052Z,33.29
2019-04-01T17:30:18.507Z,33.58
2019-04-01T17:32:48.063Z,33.84
2019-04-01T17:35:17.413Z,33.95
2019-04-01T17:37:46.881Z,33.91
2019-04-01T17:40:17.239Z,34.15
2019-04-01T17:42:47.090Z,34.17
2019-04-01T17:45:36.763Z,34.25
2019-04-01T17:48:06.781Z,34.41
2019-04-01T17:50:36.167Z,34.54
2019-04-01T17:53:06.810Z,34.61
2019-04-01T17:55:36.423Z,34.55
2019-04-01T17:58:06.482Z,34.88
2019-04-01T18:00:37.915Z,34.91
2019-04-01T18:03:09.341Z,35.03
2019-04-01T18:05:38.437Z,35.07
2019-04-01T18:08:07.893Z,34.91
2019-04-01T18:10:37.250Z,34.93
2019-04-01T18:13:06.727Z,34.79
2019-04-01T18:15:36.126Z,34.94
2019-04-01T18:18:05.636Z,34.89
2019-04-01T18:20:34.983Z,34.99
2019-04-01T18:23:04.472Z,35.04
2019-04-01T18:25:33.918Z,35.08
2019-04-01T18:28:03.361Z,35.15
2019-04-01T18:30:32.743Z,35.16
2019-04-01T18:33:02.336Z,35.22
2019-04-01T18:35:31.708Z,35.49
2019-04-01T18:38:01.108Z,35.45
2019-04-01T18:40:33.292Z,35.70
2019-04-01T18:43:01.729Z,35.63
2019-04-01T18:45:31.157Z,35.84
2019-04-01T18:48:00.562Z,35.70
2019-04-01T18:50:30.030Z,35.89
2019-04-01T18:52:59.373Z,35.93
2019-04-01T18:55:28.833Z,36.00
2019-04-01T18:57:58.292Z,36.11
2019-04-01T19:00:27.751Z,36.25
2019-04-01T19:02:57.661Z,36.58
2019-04-01T19:05:27.228Z,36.42
2019-04-01T19:07:56.628Z,36.51
2019-04-01T19:10:26.190Z,36.77
2019-04-01T19:13:05.899Z,36.89
2019-04-01T19:15:28.060Z,36.95
2019-04-01T19:17:57.885Z,37.07
2019-04-01T19:20:30.206Z,37.29
2019-04-01T19:22:58.631Z,37.26
2019-04-01T19:25:28.146Z,37.23
2019-04-01T19:27:57.626Z,37.01
2019-04-01T19:30:27.077Z,36.88
2019-04-01T19:32:56.461Z,36.95
2019-04-01T19:35:25.950Z,37.15
2019-04-01T19:37:56.282Z,37.06
2019-04-01T19:40:26.201Z,37.00
2019-04-01T19:42:55.968Z,37.09
2019-04-01T19:45:25.679Z,37.00
2019-04-01T19:47:57.306Z,37.25
2019-04-01T19:50:26.330Z,37.49
2019-04-01T19:52:55.745Z,37.50
2019-04-01T19:55:25.273Z,37.72
2019-04-01T19:57:56.040Z,38.04
2019-04-01T20:00:28.100Z,38.22
2019-04-01T20:02:56.898Z,38.10
2019-04-01T20:05:26.407Z,38.23
2019-04-01T20:07:55.902Z,38.38
2019-04-01T20:10:28.254Z,38.58
2019-04-01T20:12:56.601Z,38.70
2019-04-01T20:15:26.030Z,38.97
2019-04-01T20:17:55.450Z,39.13
2019-04-01T20:20:24.994Z,38.94
2019-04-01T20:22:54.750Z,39.12
2019-04-01T20:25:24.158Z,39.04
2019-04-01T20:27:53.834Z,39.39
2019-04-01T20:30:23.912Z,39.22
2019-04-01T20:32:53.407Z,39.31
2019-04-01T20:35:24.076Z,39.31
2019-04-01T20:37:53.810Z,39.35
2019-04-01T20:40:24.258Z,39.41
2019-04-01T20:42:55.045Z,39.32
2019-04-01T20:45:25.933Z,39.17
2019-04-01T20:47:55.626Z,39.45
2019-04-01T20:50:25.526Z,39.50
2019-04-01T20:52:55.358Z,39.58
2019-04-01T20:55:25.050Z,39.82
2019-04-01T20:57:55.572Z,39.64
2019-04-01T21:00:25.333Z,39.65
2019-04-01T21:02:55.140Z,39.77
2019-04-01T21:05:24.796Z,39.68
2019-04-01T21:07:54.441Z,39.52
2019-04-01T21:10:24.209Z,39.87
2019-04-01T21:12:53.850Z,40.13
2019-04-01T21:15:23.749Z,40.37
2019-04-01T21:17:53.394Z,40.33
2019-04-01T21:20:23.050Z,40.42
2019-04-01T21:22:52.797Z,40.68
2019-04-01T21:25:22.447Z,40.88
2019-04-01T21:27:53.083Z,40.92
2019-04-01T21:30:23.022Z,40.87
2019-04-01T21:32:52.655Z,41.13
2019-04-01T21:35:22.232Z,41.09
2019-04-01T21:37:52.011Z,41.25
2019-04-01T21:40:21.777Z,41.22
2019-04-01T21:42:51.578Z,41.31
2019-04-01T21:45:21.667Z,41.18
2019-04-01T21:47:51.656Z,41.27
2019-04-01T21:50:21.412Z,41.51
2019-04-01T21:52:51.163Z,41.47
2019-04-01T21:55:20.990Z,41.29
2019-04-01T21:57:51.331Z,41.44
2019-04-01T22:00:39.065Z,41.69
2019-04-01T22:03:08.735Z,41.60
2019-04-01T22:05:38.312Z,41.79
2019-04-01T22:08:07.943Z,41.75
2019-04-01T22:10:37.584Z,41.99
2019-04-01T22:13:07.273Z,41.87
2019-04-01T22:15:36.896Z,42.10
2019-04-01T22:18:06.666Z,42.01
2019-04-01T22:20:36.312Z,42.00
2019-04-01T22:23:06.286Z,41.93
2019-04-01T22:25:36.239Z,41.90
2019-04-01T22:28:05.992Z,41.97
2019-04-01T22:30:35.653Z,42.25
2019-04-01T22:33:05.225Z,42.27
2019-04-01T22:35:38.753Z,42.04
2019-04-01T22:38:06.620Z,41.91
2019-04-01T22:40:36.418Z,41.67
2019-04-01T22:43:06.119Z,41.66
2019-04-01T22:45:35.761Z,42.17
2019-04-01T22:48:05.423Z,42.16
2019-04-01T22:50:35.065Z,42.34
2019-04-01T22:53:04.951Z,42.20
2019-04-01T22:55:34.731Z,42.50
2019-04-01T22:58:04.488Z,42.86
2019-04-01T23:00:34.453Z,42.93
2019-04-01T23:03:04.103Z,43.07
2019-04-01T23:05:33.762Z,43.07
2019-04-01T23:08:03.442Z,42.69
2019-04-01T23:10:33.078Z,43.06
2019-04-01T23:13:02.740Z,43.12
2019-04-01T23:15:32.394Z,43.48
2019-04-01T23:18:02.132Z,44.10
2019-04-01T23:20:33.241Z,44.10
2019-04-01T23:23:03.032Z,43.71
2019-04-01T23:25:32.758Z,43.72
2019-04-01T23:28:02.323Z,43.86
2019-04-01T23:30:32.005Z,43.71
2019-04-01T23:33:01.659Z,44.08
2019-04-01T23:35:31.299Z,44.02
2019-04-01T23:38:00.849Z,44.15
2019-04-01T23:40:32.215Z,44.18
2019-04-01T23:43:02.093Z,44.20
2019-04-01T23:45:31.722Z,44.26
2019-04-01T23:48:01.514Z,44.49
2019-04-01T23:50:31.369Z,44.62
2019-04-01T23:53:02.149Z,44.74
2019-04-01T23:55:32.118Z,44.78
2019-04-01T23:58:01.796Z,44.84
